Iroquois Falls, Canada
Current Conditions -  °F | °C
As of 2:00 AM on Sunday 23 Nov 2014 (Local Time) from CYTS Reporting Station
Light Snow Light Snow  
Wind Chill: 30°   Ceiling: 700
Heat Index: 30°   Visibility: 5mi
Dew Point: 30°   Wind: 2mph
Humidity: 100%   Direction: 70°ENE
Pressure: 29.75"   Gusts: NA
Location:  48.77°N, 80.67°W
Report Text: CYTS 230700Z 07002KT 5SM -SN OVC007 M01/M01 A2975 RMK SF8 SLP090
Loading
Personal Weather Stations






























Interactive Weather Map New forecast layout! Learn more

10-Day Weather Forecast

Advertisements
Track Severe Weather on mobile